Terminal Aerodrome Forecast
Issued by NWS Omaha/Valley, NE

Home | Current Version | Previous Version | Text Only | Print | Product List | Glossary On
Versions: 1 2 3 4 5 6 7 8 9 10 11 12 13 14 15 16 17 18 19 20
000
FTUS43 KOAX 230520
TAFOFK
TAF
KOFK 230520Z 2306/2406 17008KT P6SM BKN150
     FM231300 17012KT P6SM BKN150
     FM231600 18015G24KT P6SM SCT150
     FM240100 16011KT P6SM FEW050=

USA.gov is the U.S. government's official web portal to all federal, state and local government web resources and services.